sensor_id;sensor_type;location;lat;lon;timestamp;P1;durP1;ratioP1;P2;durP2;ratioP2
9536;SDS011;4807;48.024;11.726;2022-08-16T00:00:11;1.83;;;0.90;;
9536;SDS011;4807;48.024;11.726;2022-08-16T00:03:28;2.40;;;0.90;;
9536;SDS011;4807;48.024;11.726;2022-08-16T00:06:44;0.90;;;0.90;;
9536;SDS011;4807;48.024;11.726;2022-08-16T00:09:54;1.43;;;1.10;;
9536;SDS011;4807;48.024;11.726;2022-08-16T00:13:07;0.90;;;0.87;;
9536;SDS011;4807;48.024;11.726;2022-08-16T00:16:17;1.07;;;0.93;;
9536;SDS011;4807;48.024;11.726;2022-08-16T00:19:47;0.93;;;0.93;;
9536;SDS011;4807;48.024;11.726;2022-08-16T00:23:01;1.17;;;1.07;;
9536;SDS011;4807;48.024;11.726;2022-08-16T00:26:11;1.10;;;0.90;;
9536;SDS011;4807;48.024;11.726;2022-08-16T00:29:39;1.00;;;1.00;;
9536;SDS011;4807;48.024;11.726;2022-08-16T00:32:51;0.90;;;0.90;;
9536;SDS011;4807;48.024;11.726;2022-08-16T00:36:03;1.57;;;1.00;;
9536;SDS011;4807;48.024;11.726;2022-08-16T00:39:16;0.87;;;0.87;;
9536;SDS011;4807;48.024;11.726;2022-08-16T00:42:26;0.87;;;0.87;;
9536;SDS011;4807;48.024;11.726;2022-08-16T00:45:40;1.17;;;1.10;;
9536;SDS011;4807;48.024;11.726;2022-08-16T00:49:08;1.70;;;0.97;;
9536;SDS011;4807;48.024;11.726;2022-08-16T00:52:24;1.63;;;1.10;;
9536;SDS011;4807;48.024;11.726;2022-08-16T00:55:38;0.77;;;0.77;;
9536;SDS011;4807;48.024;11.726;2022-08-16T00:58:53;0.83;;;0.83;;
9536;SDS011;4807;48.024;11.726;2022-08-16T01:02:03;1.33;;;1.17;;
9536;SDS011;4807;48.024;11.726;2022-08-16T01:05:35;1.07;;;0.80;;
9536;SDS011;4807;48.024;11.726;2022-08-16T01:08:45;1.33;;;0.83;;
9536;SDS011;4807;48.024;11.726;2022-08-16T01:12:01;1.03;;;0.90;;
9536;SDS011;4807;48.024;11.726;2022-08-16T01:15:16;1.70;;;0.90;;
9536;SDS011;4807;48.024;11.726;2022-08-16T01:18:30;1.33;;;0.90;;
9536;SDS011;4807;48.024;11.726;2022-08-16T01:21:49;0.97;;;0.90;;
9536;SDS011;4807;48.024;11.726;2022-08-16T01:25:26;0.97;;;0.80;;
9536;SDS011;4807;48.024;11.726;2022-08-16T01:28:41;0.90;;;0.90;;
9536;SDS011;4807;48.024;11.726;2022-08-16T01:31:53;0.70;;;0.70;;
9536;SDS011;4807;48.024;11.726;2022-08-16T01:35:04;0.80;;;0.80;;
9536;SDS011;4807;48.024;11.726;2022-08-16T01:38:23;0.90;;;0.80;;
9536;SDS011;4807;48.024;11.726;2022-08-16T01:45:42;0.90;;;0.90;;
9536;SDS011;4807;48.024;11.726;2022-08-16T01:48:52;1.03;;;1.00;;
9536;SDS011;4807;48.024;11.726;2022-08-16T01:52:04;1.93;;;0.90;;
9536;SDS011;4807;48.024;11.726;2022-08-16T01:55:55;1.50;;;1.03;;
9536;SDS011;4807;48.024;11.726;2022-08-16T01:59:05;0.83;;;0.83;;
9536;SDS011;4807;48.024;11.726;2022-08-16T02:02:23;3.10;;;0.80;;
9536;SDS011;4807;48.024;11.726;2022-08-16T02:05:34;1.50;;;0.70;;
9536;SDS011;4807;48.024;11.726;2022-08-16T02:08:52;0.90;;;0.90;;
9536;SDS011;4807;48.024;11.726;2022-08-16T02:12:01;0.80;;;0.80;;
9536;SDS011;4807;48.024;11.726;2022-08-16T02:15:34;0.70;;;0.70;;
9536;SDS011;4807;48.024;11.726;2022-08-16T02:18:51;1.47;;;0.90;;
9536;SDS011;4807;48.024;11.726;2022-08-16T02:22:00;1.00;;;0.90;;
9536;SDS011;4807;48.024;11.726;2022-08-16T02:25:29;1.00;;;0.90;;
9536;SDS011;4807;48.024;11.726;2022-08-16T02:28:58;1.13;;;0.80;;
9536;SDS011;4807;48.024;11.726;2022-08-16T02:32:08;0.90;;;0.87;;
9536;SDS011;4807;48.024;11.726;2022-08-16T02:35:42;1.13;;;0.87;;
9536;SDS011;4807;48.024;11.726;2022-08-16T02:39:05;0.90;;;0.90;;
9536;SDS011;4807;48.024;11.726;2022-08-16T02:42:15;0.90;;;0.90;;
9536;SDS011;4807;48.024;11.726;2022-08-16T02:45:25;0.87;;;0.87;;
9536;SDS011;4807;48.024;11.726;2022-08-16T02:48:36;1.77;;;0.90;;
9536;SDS011;4807;48.024;11.726;2022-08-16T02:51:57;1.03;;;0.80;;
9536;SDS011;4807;48.024;11.726;2022-08-16T02:55:07;1.83;;;0.93;;
9536;SDS011;4807;48.024;11.726;2022-08-16T02:58:21;1.10;;;1.10;;
9536;SDS011;4807;48.024;11.726;2022-08-16T03:01:31;0.90;;;0.90;;
9536;SDS011;4807;48.024;11.726;2022-08-16T03:04:50;0.70;;;0.70;;
9536;SDS011;4807;48.024;11.726;2022-08-16T03:08:02;1.30;;;1.00;;
9536;SDS011;4807;48.024;11.726;2022-08-16T03:11:30;1.00;;;1.00;;
9536;SDS011;4807;48.024;11.726;2022-08-16T03:14:41;1.37;;;0.90;;
9536;SDS011;4807;48.024;11.726;2022-08-16T03:17:49;1.67;;;0.80;;
9536;SDS011;4807;48.024;11.726;2022-08-16T03:21:02;0.83;;;0.83;;
9536;SDS011;4807;48.024;11.726;2022-08-16T03:24:17;0.90;;;0.90;;
9536;SDS011;4807;48.024;11.726;2022-08-16T03:27:36;0.80;;;0.80;;
9536;SDS011;4807;48.024;11.726;2022-08-16T03:30:52;0.87;;;0.87;;
9536;SDS011;4807;48.024;11.726;2022-08-16T03:34:02;1.43;;;0.90;;
9536;SDS011;4807;48.024;11.726;2022-08-16T03:37:10;1.13;;;0.87;;
9536;SDS011;4807;48.024;11.726;2022-08-16T03:40:20;2.03;;;0.93;;
9536;SDS011;4807;48.024;11.726;2022-08-16T03:43:39;0.90;;;0.83;;
9536;SDS011;4807;48.024;11.726;2022-08-16T03:46:59;0.80;;;0.80;;
9536;SDS011;4807;48.024;11.726;2022-08-16T03:50:11;1.13;;;0.80;;
9536;SDS011;4807;48.024;11.726;2022-08-16T03:53:33;1.90;;;1.10;;
9536;SDS011;4807;48.024;11.726;2022-08-16T03:56:45;3.30;;;0.97;;
9536;SDS011;4807;48.024;11.726;2022-08-16T04:00:04;4.20;;;1.00;;
9536;SDS011;4807;48.024;11.726;2022-08-16T04:03:41;1.10;;;1.10;;
9536;SDS011;4807;48.024;11.726;2022-08-16T04:06:50;3.53;;;1.40;;
9536;SDS011;4807;48.024;11.726;2022-08-16T04:10:02;1.47;;;1.13;;
9536;SDS011;4807;48.024;11.726;2022-08-16T04:13:35;12.67;;;2.50;;
9536;SDS011;4807;48.024;11.726;2022-08-16T04:17:05;8.93;;;2.43;;
9536;SDS011;4807;48.024;11.726;2022-08-16T04:20:16;6.47;;;2.07;;
9536;SDS011;4807;48.024;11.726;2022-08-16T04:23:43;12.50;;;2.50;;
9536;SDS011;4807;48.024;11.726;2022-08-16T04:26:53;5.77;;;1.90;;
9536;SDS011;4807;48.024;11.726;2022-08-16T04:30:06;8.60;;;1.97;;
9536;SDS011;4807;48.024;11.726;2022-08-16T04:33:38;3.37;;;1.47;;
9536;SDS011;4807;48.024;11.726;2022-08-16T04:36:57;3.73;;;1.43;;
9536;SDS011;4807;48.024;11.726;2022-08-16T04:40:11;1.57;;;1.30;;
9536;SDS011;4807;48.024;11.726;2022-08-16T04:43:28;1.83;;;1.00;;
9536;SDS011;4807;48.024;11.726;2022-08-16T04:46:41;2.07;;;1.00;;
9536;SDS011;4807;48.024;11.726;2022-08-16T04:50:08;2.00;;;1.10;;
9536;SDS011;4807;48.024;11.726;2022-08-16T04:54:01;4.90;;;1.17;;
9536;SDS011;4807;48.024;11.726;2022-08-16T04:57:11;3.87;;;2.47;;
9536;SDS011;4807;48.024;11.726;2022-08-16T05:00:21;11.23;;;2.20;;
9536;SDS011;4807;48.024;11.726;2022-08-16T05:03:56;2.97;;;1.20;;
9536;SDS011;4807;48.024;11.726;2022-08-16T05:07:15;1.27;;;1.00;;
9536;SDS011;4807;48.024;11.726;2022-08-16T05:10:42;2.40;;;0.97;;
9536;SDS011;4807;48.024;11.726;2022-08-16T05:13:55;1.60;;;1.30;;
9536;SDS011;4807;48.024;11.726;2022-08-16T05:17:15;2.07;;;1.47;;
9536;SDS011;4807;48.024;11.726;2022-08-16T05:20:25;2.20;;;1.00;;
9536;SDS011;4807;48.024;11.726;2022-08-16T05:23:55;1.10;;;1.10;;
9536;SDS011;4807;48.024;11.726;2022-08-16T05:27:08;1.50;;;0.70;;
9536;SDS011;4807;48.024;11.726;2022-08-16T05:30:19;1.07;;;0.93;;
9536;SDS011;4807;48.024;11.726;2022-08-16T05:33:48;1.73;;;0.90;;
9536;SDS011;4807;48.024;11.726;2022-08-16T05:37:03;1.70;;;0.90;;
9536;SDS011;4807;48.024;11.726;2022-08-16T05:40:15;1.20;;;0.97;;
9536;SDS011;4807;48.024;11.726;2022-08-16T05:43:24;1.03;;;0.90;;
9536;SDS011;4807;48.024;11.726;2022-08-16T05:46:37;3.10;;;0.93;;
9536;SDS011;4807;48.024;11.726;2022-08-16T05:49:55;2.10;;;0.90;;
9536;SDS011;4807;48.024;11.726;2022-08-16T05:53:05;2.10;;;1.17;;
9536;SDS011;4807;48.024;11.726;2022-08-16T05:56:23;2.53;;;0.77;;
9536;SDS011;4807;48.024;11.726;2022-08-16T05:59:32;0.70;;;0.70;;
9536;SDS011;4807;48.024;11.726;2022-08-16T06:02:42;1.27;;;0.80;;
9536;SDS011;4807;48.024;11.726;2022-08-16T06:06:26;1.17;;;0.70;;
9536;SDS011;4807;48.024;11.726;2022-08-16T06:09:37;0.90;;;0.73;;
9536;SDS011;4807;48.024;11.726;2022-08-16T06:12:52;0.60;;;0.60;;
9536;SDS011;4807;48.024;11.726;2022-08-16T06:16:02;1.83;;;0.70;;
9536;SDS011;4807;48.024;11.726;2022-08-16T06:19:12;4.83;;;0.70;;
9536;SDS011;4807;48.024;11.726;2022-08-16T06:22:35;3.27;;;0.70;;
9536;SDS011;4807;48.024;11.726;2022-08-16T06:25:47;0.83;;;0.60;;
9536;SDS011;4807;48.024;11.726;2022-08-16T06:29:01;3.50;;;0.70;;
9536;SDS011;4807;48.024;11.726;2022-08-16T06:32:15;2.77;;;0.63;;
9536;SDS011;4807;48.024;11.726;2022-08-16T06:35:34;2.07;;;0.80;;
9536;SDS011;4807;48.024;11.726;2022-08-16T06:38:47;0.80;;;0.80;;
9536;SDS011;4807;48.024;11.726;2022-08-16T06:42:23;0.60;;;0.60;;
9536;SDS011;4807;48.024;11.726;2022-08-16T06:45:56;3.43;;;0.70;;
9536;SDS011;4807;48.024;11.726;2022-08-16T06:49:09;3.93;;;0.80;;
9536;SDS011;4807;48.024;11.726;2022-08-16T06:52:22;1.20;;;0.60;;
9536;SDS011;4807;48.024;11.726;2022-08-16T06:55:52;2.70;;;0.57;;
9536;SDS011;4807;48.024;11.726;2022-08-16T06:59:12;0.90;;;0.63;;
9536;SDS011;4807;48.024;11.726;2022-08-16T07:02:27;2.20;;;0.70;;
9536;SDS011;4807;48.024;11.726;2022-08-16T07:05:40;3.43;;;1.00;;
9536;SDS011;4807;48.024;11.726;2022-08-16T07:09:04;1.20;;;0.90;;
9536;SDS011;4807;48.024;11.726;2022-08-16T07:12:18;2.13;;;0.73;;
9536;SDS011;4807;48.024;11.726;2022-08-16T07:15:43;1.10;;;0.80;;
9536;SDS011;4807;48.024;11.726;2022-08-16T07:19:04;0.70;;;0.50;;
9536;SDS011;4807;48.024;11.726;2022-08-16T07:22:16;4.03;;;0.67;;
9536;SDS011;4807;48.024;11.726;2022-08-16T07:25:51;2.47;;;0.67;;
9536;SDS011;4807;48.024;11.726;2022-08-16T07:29:04;0.53;;;0.53;;
9536;SDS011;4807;48.024;11.726;2022-08-16T07:32:14;1.17;;;0.70;;
9536;SDS011;4807;48.024;11.726;2022-08-16T07:35:36;1.70;;;0.70;;
9536;SDS011;4807;48.024;11.726;2022-08-16T07:38:55;2.60;;;0.70;;
9536;SDS011;4807;48.024;11.726;2022-08-16T07:42:06;4.43;;;0.90;;
9536;SDS011;4807;48.024;11.726;2022-08-16T07:45:26;2.80;;;0.70;;
9536;SDS011;4807;48.024;11.726;2022-08-16T07:48:40;1.17;;;0.80;;
9536;SDS011;4807;48.024;11.726;2022-08-16T07:51:54;1.00;;;1.00;;
9536;SDS011;4807;48.024;11.726;2022-08-16T07:55:08;1.60;;;1.17;;
9536;SDS011;4807;48.024;11.726;2022-08-16T07:58:20;3.20;;;1.07;;
9536;SDS011;4807;48.024;11.726;2022-08-16T08:01:42;0.97;;;0.70;;
9536;SDS011;4807;48.024;11.726;2022-08-16T08:04:53;1.00;;;0.60;;
9536;SDS011;4807;48.024;11.726;2022-08-16T08:08:04;2.00;;;1.00;;
9536;SDS011;4807;48.024;11.726;2022-08-16T08:11:33;1.03;;;0.90;;
9536;SDS011;4807;48.024;11.726;2022-08-16T08:14:45;1.20;;;0.87;;
9536;SDS011;4807;48.024;11.726;2022-08-16T08:17:56;1.37;;;0.77;;
9536;SDS011;4807;48.024;11.726;2022-08-16T08:21:29;1.33;;;0.90;;
9536;SDS011;4807;48.024;11.726;2022-08-16T08:25:03;2.43;;;0.87;;
9536;SDS011;4807;48.024;11.726;2022-08-16T08:28:19;0.90;;;0.90;;
9536;SDS011;4807;48.024;11.726;2022-08-16T08:31:31;1.27;;;1.00;;
9536;SDS011;4807;48.024;11.726;2022-08-16T08:34:42;1.47;;;0.97;;
9536;SDS011;4807;48.024;11.726;2022-08-16T08:37:54;1.00;;;1.00;;
9536;SDS011;4807;48.024;11.726;2022-08-16T08:41:05;11.37;;;1.33;;
9536;SDS011;4807;48.024;11.726;2022-08-16T08:44:14;0.93;;;0.80;;
9536;SDS011;4807;48.024;11.726;2022-08-16T08:47:38;0.93;;;0.93;;
9536;SDS011;4807;48.024;11.726;2022-08-16T08:51:00;0.90;;;0.90;;
9536;SDS011;4807;48.024;11.726;2022-08-16T08:54:21;1.10;;;0.90;;
9536;SDS011;4807;48.024;11.726;2022-08-16T08:57:33;1.10;;;1.00;;
9536;SDS011;4807;48.024;11.726;2022-08-16T09:01:06;1.30;;;1.20;;
9536;SDS011;4807;48.024;11.726;2022-08-16T09:04:17;3.20;;;1.00;;
9536;SDS011;4807;48.024;11.726;2022-08-16T09:07:28;1.10;;;1.10;;
9536;SDS011;4807;48.024;11.726;2022-08-16T09:10:58;1.87;;;0.90;;
9536;SDS011;4807;48.024;11.726;2022-08-16T09:14:10;1.20;;;1.10;;
9536;SDS011;4807;48.024;11.726;2022-08-16T09:17:31;1.40;;;1.20;;
9536;SDS011;4807;48.024;11.726;2022-08-16T09:21:03;1.07;;;1.00;;
9536;SDS011;4807;48.024;11.726;2022-08-16T09:24:15;1.70;;;1.00;;
9536;SDS011;4807;48.024;11.726;2022-08-16T09:27:46;4.07;;;1.30;;
9536;SDS011;4807;48.024;11.726;2022-08-16T09:31:09;1.83;;;1.00;;
9536;SDS011;4807;48.024;11.726;2022-08-16T09:34:18;2.13;;;1.20;;
9536;SDS011;4807;48.024;11.726;2022-08-16T09:37:27;1.30;;;1.20;;
9536;SDS011;4807;48.024;11.726;2022-08-16T09:40:44;1.20;;;1.10;;
9536;SDS011;4807;48.024;11.726;2022-08-16T09:43:55;1.87;;;1.10;;
9536;SDS011;4807;48.024;11.726;2022-08-16T09:47:08;1.47;;;1.37;;
9536;SDS011;4807;48.024;11.726;2022-08-16T09:50:16;1.07;;;1.00;;
9536;SDS011;4807;48.024;11.726;2022-08-16T09:53:30;1.10;;;1.03;;
9536;SDS011;4807;48.024;11.726;2022-08-16T09:56:39;0.90;;;0.90;;
9536;SDS011;4807;48.024;11.726;2022-08-16T10:00:00;1.50;;;1.40;;
9536;SDS011;4807;48.024;11.726;2022-08-16T10:03:30;1.10;;;1.00;;
9536;SDS011;4807;48.024;11.726;2022-08-16T10:06:39;1.67;;;1.20;;
9536;SDS011;4807;48.024;11.726;2022-08-16T10:09:51;2.17;;;1.07;;
9536;SDS011;4807;48.024;11.726;2022-08-16T10:13:01;1.30;;;1.20;;
9536;SDS011;4807;48.024;11.726;2022-08-16T10:16:23;1.30;;;1.20;;
9536;SDS011;4807;48.024;11.726;2022-08-16T10:19:33;1.83;;;1.07;;
9536;SDS011;4807;48.024;11.726;2022-08-16T10:22:44;1.27;;;1.10;;
9536;SDS011;4807;48.024;11.726;2022-08-16T10:25:53;1.20;;;1.10;;
9536;SDS011;4807;48.024;11.726;2022-08-16T10:29:22;1.10;;;0.87;;
9536;SDS011;4807;48.024;11.726;2022-08-16T10:32:51;1.07;;;1.07;;
9536;SDS011;4807;48.024;11.726;2022-08-16T10:36:01;1.27;;;1.17;;
9536;SDS011;4807;48.024;11.726;2022-08-16T10:39:12;1.77;;;1.50;;
9536;SDS011;4807;48.024;11.726;2022-08-16T10:42:22;1.67;;;1.00;;
9536;SDS011;4807;48.024;11.726;2022-08-16T10:45:30;1.20;;;1.10;;
9536;SDS011;4807;48.024;11.726;2022-08-16T10:48:44;1.53;;;1.17;;
9536;SDS011;4807;48.024;11.726;2022-08-16T10:51:53;0.97;;;0.97;;
9536;SDS011;4807;48.024;11.726;2022-08-16T10:55:08;1.00;;;1.00;;
9536;SDS011;4807;48.024;11.726;2022-08-16T10:58:38;3.10;;;1.03;;
9536;SDS011;4807;48.024;11.726;2022-08-16T11:01:47;2.93;;;1.20;;
9536;SDS011;4807;48.024;11.726;2022-08-16T11:05:17;1.63;;;0.90;;
9536;SDS011;4807;48.024;11.726;2022-08-16T11:08:26;2.57;;;1.30;;
9536;SDS011;4807;48.024;11.726;2022-08-16T11:11:42;1.87;;;1.70;;
9536;SDS011;4807;48.024;11.726;2022-08-16T11:15:10;2.97;;;1.47;;
9536;SDS011;4807;48.024;11.726;2022-08-16T11:18:22;1.43;;;1.33;;
9536;SDS011;4807;48.024;11.726;2022-08-16T11:21:54;1.60;;;1.20;;
9536;SDS011;4807;48.024;11.726;2022-08-16T11:25:24;1.73;;;1.20;;
9536;SDS011;4807;48.024;11.726;2022-08-16T11:28:55;1.60;;;1.20;;
9536;SDS011;4807;48.024;11.726;2022-08-16T11:32:20;3.67;;;1.90;;
9536;SDS011;4807;48.024;11.726;2022-08-16T11:35:39;1.37;;;1.10;;
9536;SDS011;4807;48.024;11.726;2022-08-16T11:38:51;1.93;;;1.07;;
9536;SDS011;4807;48.024;11.726;2022-08-16T11:42:03;1.10;;;1.10;;
9536;SDS011;4807;48.024;11.726;2022-08-16T11:45:32;1.67;;;1.30;;
9536;SDS011;4807;48.024;11.726;2022-08-16T11:48:42;1.43;;;1.33;;
9536;SDS011;4807;48.024;11.726;2022-08-16T11:51:51;1.30;;;1.20;;
9536;SDS011;4807;48.024;11.726;2022-08-16T11:55:02;1.47;;;1.37;;
9536;SDS011;4807;48.024;11.726;2022-08-16T11:58:13;1.77;;;1.30;;
9536;SDS011;4807;48.024;11.726;2022-08-16T12:01:25;2.80;;;1.50;;
9536;SDS011;4807;48.024;11.726;2022-08-16T12:04:35;1.50;;;1.40;;
9536;SDS011;4807;48.024;11.726;2022-08-16T12:07:43;3.43;;;1.30;;
9536;SDS011;4807;48.024;11.726;2022-08-16T12:10:54;1.27;;;1.27;;
9536;SDS011;4807;48.024;11.726;2022-08-16T12:14:07;3.17;;;1.23;;
9536;SDS011;4807;48.024;11.726;2022-08-16T12:17:16;3.60;;;1.20;;
9536;SDS011;4807;48.024;11.726;2022-08-16T12:20:32;3.80;;;1.50;;
9536;SDS011;4807;48.024;11.726;2022-08-16T12:23:45;1.00;;;1.00;;
9536;SDS011;4807;48.024;11.726;2022-08-16T12:26:55;1.77;;;1.13;;
9536;SDS011;4807;48.024;11.726;2022-08-16T12:30:06;1.60;;;1.20;;
9536;SDS011;4807;48.024;11.726;2022-08-16T12:33:33;1.37;;;1.10;;
9536;SDS011;4807;48.024;11.726;2022-08-16T12:36:50;1.60;;;1.50;;
9536;SDS011;4807;48.024;11.726;2022-08-16T12:39:58;3.33;;;1.40;;
9536;SDS011;4807;48.024;11.726;2022-08-16T12:43:09;1.30;;;1.27;;
9536;SDS011;4807;48.024;11.726;2022-08-16T12:46:19;1.20;;;1.10;;
9536;SDS011;4807;48.024;11.726;2022-08-16T12:49:33;1.70;;;1.20;;
9536;SDS011;4807;48.024;11.726;2022-08-16T12:52:47;1.27;;;1.10;;
9536;SDS011;4807;48.024;11.726;2022-08-16T12:56:00;1.33;;;1.23;;
9536;SDS011;4807;48.024;11.726;2022-08-16T12:59:11;1.97;;;1.40;;
9536;SDS011;4807;48.024;11.726;2022-08-16T13:02:27;2.23;;;1.30;;
9536;SDS011;4807;48.024;11.726;2022-08-16T13:05:45;1.43;;;1.33;;
9536;SDS011;4807;48.024;11.726;2022-08-16T13:09:01;1.70;;;1.30;;
9536;SDS011;4807;48.024;11.726;2022-08-16T13:12:26;4.33;;;1.37;;
9536;SDS011;4807;48.024;11.726;2022-08-16T13:15:36;1.67;;;1.40;;
9536;SDS011;4807;48.024;11.726;2022-08-16T13:19:07;1.27;;;1.20;;
9536;SDS011;4807;48.024;11.726;2022-08-16T13:22:59;1.43;;;1.33;;
9536;SDS011;4807;48.024;11.726;2022-08-16T13:26:16;2.30;;;1.30;;
9536;SDS011;4807;48.024;11.726;2022-08-16T13:29:25;2.90;;;1.60;;
9536;SDS011;4807;48.024;11.726;2022-08-16T13:32:51;1.70;;;1.60;;
9536;SDS011;4807;48.024;11.726;2022-08-16T13:36:00;1.17;;;1.07;;
9536;SDS011;4807;48.024;11.726;2022-08-16T13:39:26;1.23;;;0.80;;
9536;SDS011;4807;48.024;11.726;2022-08-16T13:42:37;2.17;;;0.97;;
9536;SDS011;4807;48.024;11.726;2022-08-16T13:46:02;1.60;;;1.47;;
9536;SDS011;4807;48.024;11.726;2022-08-16T13:49:19;3.43;;;1.37;;
9536;SDS011;4807;48.024;11.726;2022-08-16T13:52:28;1.07;;;0.93;;
9536;SDS011;4807;48.024;11.726;2022-08-16T13:55:45;1.30;;;1.20;;
9536;SDS011;4807;48.024;11.726;2022-08-16T13:59:04;1.27;;;1.10;;
9536;SDS011;4807;48.024;11.726;2022-08-16T14:02:26;1.63;;;1.10;;
9536;SDS011;4807;48.024;11.726;2022-08-16T14:05:37;1.37;;;1.27;;
9536;SDS011;4807;48.024;11.726;2022-08-16T14:08:46;2.37;;;1.10;;
9536;SDS011;4807;48.024;11.726;2022-08-16T14:12:16;1.43;;;1.33;;
9536;SDS011;4807;48.024;11.726;2022-08-16T14:15:29;1.20;;;1.10;;
9536;SDS011;4807;48.024;11.726;2022-08-16T14:18:40;4.17;;;1.20;;
9536;SDS011;4807;48.024;11.726;2022-08-16T14:21:53;1.20;;;1.10;;
9536;SDS011;4807;48.024;11.726;2022-08-16T14:25:23;3.30;;;1.27;;
9536;SDS011;4807;48.024;11.726;2022-08-16T14:28:34;2.70;;;1.30;;
9536;SDS011;4807;48.024;11.726;2022-08-16T14:31:43;1.47;;;1.37;;
9536;SDS011;4807;48.024;11.726;2022-08-16T14:35:00;1.53;;;1.10;;
9536;SDS011;4807;48.024;11.726;2022-08-16T14:38:15;1.50;;;1.40;;
9536;SDS011;4807;48.024;11.726;2022-08-16T14:41:30;1.40;;;1.10;;
9536;SDS011;4807;48.024;11.726;2022-08-16T14:44:39;1.83;;;1.20;;
9536;SDS011;4807;48.024;11.726;2022-08-16T14:47:48;1.40;;;1.30;;
9536;SDS011;4807;48.024;11.726;2022-08-16T14:50:58;2.10;;;0.90;;
9536;SDS011;4807;48.024;11.726;2022-08-16T14:54:08;1.33;;;1.00;;
9536;SDS011;4807;48.024;11.726;2022-08-16T14:57:20;2.00;;;1.17;;
9536;SDS011;4807;48.024;11.726;2022-08-16T15:00:30;1.73;;;1.10;;
9536;SDS011;4807;48.024;11.726;2022-08-16T15:03:42;1.30;;;1.20;;
9536;SDS011;4807;48.024;11.726;2022-08-16T15:06:54;1.63;;;1.10;;
9536;SDS011;4807;48.024;11.726;2022-08-16T15:10:07;1.23;;;0.90;;
9536;SDS011;4807;48.024;11.726;2022-08-16T15:13:30;1.63;;;1.30;;
9536;SDS011;4807;48.024;11.726;2022-08-16T15:16:39;1.30;;;1.10;;
9536;SDS011;4807;48.024;11.726;2022-08-16T15:19:51;1.53;;;1.20;;
9536;SDS011;4807;48.024;11.726;2022-08-16T15:23:01;1.40;;;1.30;;
9536;SDS011;4807;48.024;11.726;2022-08-16T15:26:15;4.10;;;1.20;;
9536;SDS011;4807;48.024;11.726;2022-08-16T15:29:44;1.33;;;1.23;;
9536;SDS011;4807;48.024;11.726;2022-08-16T15:32:59;2.03;;;1.40;;
9536;SDS011;4807;48.024;11.726;2022-08-16T15:36:14;1.70;;;1.03;;
9536;SDS011;4807;48.024;11.726;2022-08-16T15:39:26;1.30;;;0.90;;
9536;SDS011;4807;48.024;11.726;2022-08-16T15:42:48;2.73;;;1.13;;
9536;SDS011;4807;48.024;11.726;2022-08-16T15:46:00;3.73;;;1.50;;
9536;SDS011;4807;48.024;11.726;2022-08-16T15:49:46;1.20;;;1.10;;
9536;SDS011;4807;48.024;11.726;2022-08-16T15:53:03;1.87;;;1.40;;
9536;SDS011;4807;48.024;11.726;2022-08-16T15:56:18;2.07;;;1.20;;
9536;SDS011;4807;48.024;11.726;2022-08-16T15:59:34;2.93;;;1.57;;
9536;SDS011;4807;48.024;11.726;2022-08-16T16:02:58;1.17;;;1.07;;
9536;SDS011;4807;48.024;11.726;2022-08-16T16:06:13;1.30;;;1.20;;
9536;SDS011;4807;48.024;11.726;2022-08-16T16:09:33;1.27;;;1.17;;
9536;SDS011;4807;48.024;11.726;2022-08-16T16:12:42;1.83;;;1.20;;
9536;SDS011;4807;48.024;11.726;2022-08-16T16:15:59;3.70;;;1.60;;
9536;SDS011;4807;48.024;11.726;2022-08-16T16:19:19;2.40;;;1.20;;
9536;SDS011;4807;48.024;11.726;2022-08-16T16:22:28;2.57;;;1.50;;
9536;SDS011;4807;48.024;11.726;2022-08-16T16:25:37;1.40;;;1.30;;
9536;SDS011;4807;48.024;11.726;2022-08-16T16:28:49;4.60;;;3.50;;
9536;SDS011;4807;48.024;11.726;2022-08-16T16:32:19;2.63;;;1.87;;
9536;SDS011;4807;48.024;11.726;2022-08-16T16:35:40;1.83;;;1.40;;
9536;SDS011;4807;48.024;11.726;2022-08-16T16:38:52;2.70;;;1.50;;
9536;SDS011;4807;48.024;11.726;2022-08-16T16:42:01;1.30;;;1.20;;
9536;SDS011;4807;48.024;11.726;2022-08-16T16:45:16;1.40;;;1.30;;
9536;SDS011;4807;48.024;11.726;2022-08-16T16:48:28;1.33;;;1.23;;
9536;SDS011;4807;48.024;11.726;2022-08-16T16:51:41;1.40;;;1.30;;
9536;SDS011;4807;48.024;11.726;2022-08-16T16:54:55;2.93;;;1.37;;
9536;SDS011;4807;48.024;11.726;2022-08-16T16:58:05;2.13;;;1.93;;
9536;SDS011;4807;48.024;11.726;2022-08-16T17:01:43;1.57;;;1.43;;
9536;SDS011;4807;48.024;11.726;2022-08-16T17:05:16;2.47;;;1.33;;
9536;SDS011;4807;48.024;11.726;2022-08-16T17:08:26;1.47;;;1.37;;
9536;SDS011;4807;48.024;11.726;2022-08-16T17:11:38;4.03;;;1.60;;
9536;SDS011;4807;48.024;11.726;2022-08-16T17:14:50;2.47;;;1.30;;
9536;SDS011;4807;48.024;11.726;2022-08-16T17:17:59;1.60;;;1.40;;
9536;SDS011;4807;48.024;11.726;2022-08-16T17:21:29;1.53;;;1.43;;
9536;SDS011;4807;48.024;11.726;2022-08-16T17:24:43;2.40;;;1.13;;
9536;SDS011;4807;48.024;11.726;2022-08-16T17:27:57;1.57;;;1.30;;
9536;SDS011;4807;48.024;11.726;2022-08-16T17:31:26;1.60;;;1.50;;
9536;SDS011;4807;48.024;11.726;2022-08-16T17:34:44;2.33;;;1.20;;
9536;SDS011;4807;48.024;11.726;2022-08-16T17:37:57;3.57;;;1.50;;
9536;SDS011;4807;48.024;11.726;2022-08-16T17:41:08;1.67;;;1.57;;
9536;SDS011;4807;48.024;11.726;2022-08-16T17:44:17;1.70;;;1.40;;
9536;SDS011;4807;48.024;11.726;2022-08-16T17:47:26;1.47;;;1.37;;
9536;SDS011;4807;48.024;11.726;2022-08-16T17:50:34;2.03;;;1.60;;
9536;SDS011;4807;48.024;11.726;2022-08-16T17:53:44;2.20;;;1.60;;
9536;SDS011;4807;48.024;11.726;2022-08-16T17:56:56;1.60;;;1.50;;
9536;SDS011;4807;48.024;11.726;2022-08-16T18:00:08;1.60;;;1.50;;
9536;SDS011;4807;48.024;11.726;2022-08-16T18:03:27;1.60;;;1.50;;
9536;SDS011;4807;48.024;11.726;2022-08-16T18:07:02;2.40;;;1.40;;
9536;SDS011;4807;48.024;11.726;2022-08-16T18:10:13;3.57;;;1.30;;
9536;SDS011;4807;48.024;11.726;2022-08-16T18:13:38;1.80;;;1.60;;
9536;SDS011;4807;48.024;11.726;2022-08-16T18:16:51;1.73;;;1.60;;
9536;SDS011;4807;48.024;11.726;2022-08-16T18:20:06;3.63;;;1.70;;
9536;SDS011;4807;48.024;11.726;2022-08-16T18:23:41;2.03;;;1.60;;
9536;SDS011;4807;48.024;11.726;2022-08-16T18:26:51;1.67;;;1.57;;
9536;SDS011;4807;48.024;11.726;2022-08-16T18:30:00;1.70;;;1.60;;
9536;SDS011;4807;48.024;11.726;2022-08-16T18:33:11;2.70;;;1.50;;
9536;SDS011;4807;48.024;11.726;2022-08-16T18:36:21;2.53;;;1.90;;
9536;SDS011;4807;48.024;11.726;2022-08-16T18:39:34;2.47;;;1.90;;
9536;SDS011;4807;48.024;11.726;2022-08-16T18:42:52;1.93;;;1.80;;
9536;SDS011;4807;48.024;11.726;2022-08-16T18:46:03;2.87;;;1.70;;
9536;SDS011;4807;48.024;11.726;2022-08-16T18:49:12;2.90;;;1.97;;
9536;SDS011;4807;48.024;11.726;2022-08-16T18:52:23;2.10;;;2.00;;
9536;SDS011;4807;48.024;11.726;2022-08-16T18:55:32;3.40;;;2.40;;
9536;SDS011;4807;48.024;11.726;2022-08-16T18:58:51;2.37;;;2.17;;
9536;SDS011;4807;48.024;11.726;2022-08-16T19:02:00;4.37;;;2.20;;
9536;SDS011;4807;48.024;11.726;2022-08-16T19:05:12;3.07;;;2.37;;
9536;SDS011;4807;48.024;11.726;2022-08-16T19:08:27;4.30;;;2.57;;
9536;SDS011;4807;48.024;11.726;2022-08-16T19:11:37;2.83;;;2.50;;
9536;SDS011;4807;48.024;11.726;2022-08-16T19:14:46;7.83;;;2.57;;
9536;SDS011;4807;48.024;11.726;2022-08-16T19:17:56;2.33;;;2.13;;
9536;SDS011;4807;48.024;11.726;2022-08-16T19:21:06;5.43;;;2.80;;
9536;SDS011;4807;48.024;11.726;2022-08-16T19:24:20;7.20;;;2.60;;
9536;SDS011;4807;48.024;11.726;2022-08-16T19:27:34;3.77;;;2.13;;
9536;SDS011;4807;48.024;11.726;2022-08-16T19:30:48;5.47;;;2.90;;
9536;SDS011;4807;48.024;11.726;2022-08-16T19:33:57;7.87;;;2.97;;
9536;SDS011;4807;48.024;11.726;2022-08-16T19:37:06;9.87;;;3.53;;
9536;SDS011;4807;48.024;11.726;2022-08-16T19:40:14;6.33;;;2.97;;
9536;SDS011;4807;48.024;11.726;2022-08-16T19:43:43;4.80;;;2.50;;
9536;SDS011;4807;48.024;11.726;2022-08-16T19:46:53;2.97;;;2.20;;
9536;SDS011;4807;48.024;11.726;2022-08-16T19:50:03;2.37;;;2.10;;
9536;SDS011;4807;48.024;11.726;2022-08-16T19:53:12;2.03;;;1.90;;
9536;SDS011;4807;48.024;11.726;2022-08-16T19:56:24;3.40;;;2.43;;
9536;SDS011;4807;48.024;11.726;2022-08-16T19:59:35;4.00;;;2.30;;
9536;SDS011;4807;48.024;11.726;2022-08-16T20:02:48;6.50;;;2.17;;